Time;durP1;ratioP1;P1;durP2;ratioP2;P2;SDS_P1;SDS_P2;PMS_P1;PMS_P2;Temp;Humidity;BMP_temperature;BMP_pressure;BME280_temperature;BME280_humidity;BME280_pressure;Samples;Min_cycle;Max_cycle;Signal;HPM_P1;HPM_P2
2023/08/03 00:01:12;;;;;;;3.90;2.00;;;15.80;99.90;;;;;;5034824;28;20208;-78
2023/08/03 00:03:40;;;;;;;4.77;2.30;;;15.80;99.90;;;;;;5034304;28;20204;-75
2023/08/03 00:06:08;;;;;;;6.33;2.20;;;15.80;99.90;;;;;;5038039;28;20218;-76
2023/08/03 00:08:37;;;;;;;4.30;2.47;;;15.80;99.90;;;;;;5054238;28;20228;-76
2023/08/03 00:11:06;;;;;;;5.20;1.97;;;15.80;99.90;;;;;;5054653;28;20228;-77
2023/08/03 00:13:34;;;;;;;5.03;1.87;;;15.80;99.90;;;;;;5054122;28;20876;-76
2023/08/03 00:16:02;;;;;;;3.60;2.07;;;15.80;99.90;;;;;;5049998;28;20251;-78
2023/08/03 00:18:30;;;;;;;5.67;2.30;;;15.70;99.90;;;;;;5034502;28;20726;-78
2023/08/03 00:20:58;;;;;;;5.13;2.27;;;15.70;99.90;;;;;;5034403;28;20239;-76
2023/08/03 00:23:27;;;;;;;7.53;2.50;;;15.60;99.90;;;;;;5035028;28;20216;-76
2023/08/03 00:25:55;;;;;;;5.43;2.30;;;15.60;99.90;;;;;;5034434;28;20209;-74
2023/08/03 00:28:24;;;;;;;4.23;2.30;;;15.60;99.90;;;;;;5034004;28;20703;-76
2023/08/03 00:30:52;;;;;;;6.30;2.30;;;15.60;99.90;;;;;;5038486;28;20213;-76
2023/08/03 00:33:20;;;;;;;5.93;2.30;;;15.60;99.90;;;;;;5033700;28;20213;-78
2023/08/03 00:35:48;;;;;;;6.07;2.40;;;15.50;99.90;;;;;;5034185;28;20664;-75
2023/08/03 00:38:16;;;;;;;3.90;2.10;;;15.50;99.90;;;;;;5033792;28;20204;-75
2023/08/03 00:40:44;;;;;;;7.40;2.70;;;15.50;99.90;;;;;;5033936;28;20298;-75
2023/08/03 00:43:12;;;;;;;3.23;2.00;;;15.50;99.90;;;;;;5033425;28;20266;-75
2023/08/03 00:45:42;;;;;;;3.87;2.00;;;15.40;99.90;;;;;;5033713;28;20270;-74
2023/08/03 00:48:10;;;;;;;5.37;2.33;;;15.40;99.90;;;;;;5033722;28;20220;-75
2023/08/03 00:50:38;;;;;;;6.13;2.63;;;15.40;99.90;;;;;;5035587;28;20300;-75
2023/08/03 00:53:07;;;;;;;4.40;2.30;;;15.40;99.90;;;;;;5053635;28;20208;-73
2023/08/03 00:55:35;;;;;;;6.23;2.47;;;15.50;99.90;;;;;;5053762;28;20208;-76
2023/08/03 00:58:04;;;;;;;8.17;2.33;;;15.50;99.90;;;;;;5053033;28;20205;-74
2023/08/03 01:00:32;;;;;;;4.23;2.30;;;15.50;99.90;;;;;;5033775;28;20204;-75
2023/08/03 01:03:02;;;;;;;5.07;2.27;;;15.50;99.90;;;;;;5033041;28;20270;-74
2023/08/03 01:05:32;;;;;;;10.53;2.80;;;15.40;99.90;;;;;;5037120;28;20204;-74
2023/08/03 01:08:00;;;;;;;7.33;2.63;;;15.50;99.90;;;;;;5038059;28;20226;-77
2023/08/03 01:10:29;;;;;;;3.97;2.40;;;15.50;99.90;;;;;;5032948;28;20237;-76
2023/08/03 01:12:58;;;;;;;5.57;2.27;;;15.40;99.90;;;;;;5033668;28;20205;-73
2023/08/03 01:15:26;;;;;;;5.87;2.73;;;15.40;99.90;;;;;;5034127;28;20278;-76
2023/08/03 01:17:54;;;;;;;4.57;2.20;;;15.40;99.90;;;;;;5033789;28;20797;-77
2023/08/03 01:20:26;;;;;;;6.80;2.30;;;15.40;99.90;;;;;;5033537;28;20208;-80
2023/08/03 01:22:55;;;;;;;4.27;2.30;;;15.40;99.90;;;;;;5033157;28;20660;-76
2023/08/03 01:25:23;;;;;;;5.20;2.30;;;15.50;99.90;;;;;;5048149;28;20215;-78
2023/08/03 01:27:51;;;;;;;5.93;2.57;;;15.50;99.90;;;;;;5059714;28;20260;-77
2023/08/03 01:30:19;;;;;;;6.70;2.37;;;15.50;99.90;;;;;;5053530;28;20227;-78
2023/08/03 01:32:47;;;;;;;6.17;2.13;;;15.50;99.90;;;;;;5047958;28;20209;-75
2023/08/03 01:35:16;;;;;;;7.33;2.60;;;15.50;99.90;;;;;;5032666;28;20216;-76
2023/08/03 01:37:44;;;;;;;5.07;2.50;;;15.50;99.90;;;;;;5033491;28;20286;-76
2023/08/03 01:40:14;;;;;;;3.90;2.30;;;15.50;99.90;;;;;;5032791;28;20236;-77
2023/08/03 01:42:42;;;;;;;6.50;2.30;;;15.50;99.90;;;;;;5032452;28;20209;-76
2023/08/03 01:45:11;;;;;;;6.97;2.50;;;15.60;99.90;;;;;;5049492;28;20204;-76
2023/08/03 01:47:39;;;;;;;7.33;2.60;;;15.60;99.90;;;;;;5053126;28;20212;-76
2023/08/03 01:50:07;;;;;;;7.13;2.50;;;15.50;99.90;;;;;;5053010;28;20300;-77
2023/08/03 01:52:35;;;;;;;6.53;2.53;;;15.60;99.90;;;;;;5038645;28;20209;-79
2023/08/03 01:55:04;;;;;;;9.13;2.50;;;15.50;99.90;;;;;;5032797;28;20263;-76
2023/08/03 01:57:33;;;;;;;6.53;2.60;;;15.60;99.90;;;;;;5032851;28;20671;-75
2023/08/03 02:00:02;;;;;;;6.00;2.10;;;15.50;99.90;;;;;;5038211;28;20228;-74
2023/08/03 02:02:30;;;;;;;5.20;2.47;;;15.50;99.90;;;;;;5038866;28;20263;-76
2023/08/03 02:04:58;;;;;;;5.87;2.10;;;15.60;99.90;;;;;;5043637;28;20629;-75
2023/08/03 02:07:43;;;;;;;5.10;2.50;;;15.50;99.90;;;;;;5052295;28;20362;-77
2023/08/03 02:10:12;;;;;;;5.20;2.23;;;15.50;99.90;;;;;;5032630;28;20237;-76
2023/08/03 02:12:41;;;;;;;6.73;2.50;;;15.60;99.90;;;;;;5033445;28;20219;-79
2023/08/03 02:15:11;;;;;;;6.00;2.33;;;15.60;99.90;;;;;;5032084;28;20221;-79
2023/08/03 02:17:39;;;;;;;5.23;2.30;;;15.60;99.90;;;;;;5049457;28;20215;-78
2023/08/03 02:20:09;;;;;;;9.50;2.50;;;15.60;99.90;;;;;;5052078;28;20227;-79
2023/08/03 02:22:37;;;;;;;9.03;2.60;;;15.60;99.90;;;;;;5052075;28;20557;-77
2023/08/03 02:25:05;;;;;;;8.80;2.63;;;15.60;99.90;;;;;;5040943;28;20209;-77
2023/08/03 02:27:34;;;;;;;8.77;2.57;;;15.60;99.90;;;;;;5032159;28;20616;-80
2023/08/03 02:30:03;;;;;;;12.83;2.90;;;15.60;99.90;;;;;;5032246;28;20228;-77
2023/08/03 02:32:31;;;;;;;5.60;2.50;;;15.60;99.90;;;;;;5031755;28;20266;-77
2023/08/03 02:35:00;;;;;;;7.37;2.70;;;15.70;99.90;;;;;;5030097;28;20662;-76
2023/08/03 02:37:28;;;;;;;5.03;2.40;;;15.70;99.90;;;;;;5030505;28;20271;-78
2023/08/03 02:39:56;;;;;;;6.80;2.60;;;15.60;99.90;;;;;;5030917;28;20208;-76
2023/08/03 02:42:24;;;;;;;8.23;2.90;;;15.60;99.90;;;;;;5037457;28;20283;-78
2023/08/03 02:44:52;;;;;;;8.83;2.90;;;15.60;99.90;;;;;;5050972;28;20208;-78
2023/08/03 02:47:21;;;;;;;7.33;3.00;;;15.60;99.90;;;;;;5054681;28;20208;-79
2023/08/03 02:49:50;;;;;;;7.17;2.67;;;15.60;99.90;;;;;;5051773;28;20255;-76
2023/08/03 02:52:18;;;;;;;8.00;2.87;;;15.60;99.90;;;;;;5035763;28;20204;-78
2023/08/03 02:54:46;;;;;;;9.97;2.47;;;15.60;99.90;;;;;;5036071;28;20255;-76
2023/08/03 02:57:14;;;;;;;7.50;2.67;;;15.60;99.90;;;;;;5036202;28;20698;-76
2023/08/03 02:59:42;;;;;;;8.47;2.93;;;15.50;99.90;;;;;;5036255;28;20205;-75
2023/08/03 03:02:11;;;;;;;6.47;2.60;;;15.50;99.90;;;;;;5037173;28;20658;-78
2023/08/03 03:04:40;;;;;;;7.60;2.37;;;15.40;99.90;;;;;;5037737;28;20212;-77
2023/08/03 03:07:08;;;;;;;7.97;2.80;;;15.40;99.90;;;;;;5036518;28;20631;-78
2023/08/03 03:09:37;;;;;;;11.07;2.77;;;15.40;99.90;;;;;;5038270;28;20232;-78
2023/08/03 03:12:05;;;;;;;8.40;2.80;;;15.40;99.90;;;;;;5040243;28;20283;-77
2023/08/03 03:14:35;;;;;;;7.33;2.30;;;15.40;99.90;;;;;;5035674;28;20250;-77
2023/08/03 03:17:03;;;;;;;9.03;2.90;;;15.50;99.90;;;;;;5036111;28;20215;-75
2023/08/03 03:19:31;;;;;;;7.37;2.70;;;15.50;99.90;;;;;;5035826;28;20658;-75
2023/08/03 03:22:00;;;;;;;7.73;2.40;;;15.50;99.90;;;;;;5047259;28;20717;-75
2023/08/03 03:24:29;;;;;;;7.97;2.50;;;15.50;99.90;;;;;;5055466;28;20201;-77
2023/08/03 03:26:57;;;;;;;8.77;2.70;;;15.50;99.90;;;;;;5043857;28;20209;-78
2023/08/03 03:29:25;;;;;;;9.43;3.13;;;15.40;99.90;;;;;;5034764;28;20205;-77
2023/08/03 03:31:53;;;;;;;8.57;2.83;;;15.40;99.90;;;;;;5043801;28;20298;-77
2023/08/03 03:34:21;;;;;;;7.90;2.77;;;15.40;99.90;;;;;;5054823;28;20222;-77
2023/08/03 03:36:50;;;;;;;9.30;2.80;;;15.40;99.90;;;;;;5055196;28;20246;-77
2023/08/03 03:39:19;;;;;;;8.43;2.90;;;15.30;99.90;;;;;;5041555;28;20213;-78
2023/08/03 03:41:47;;;;;;;8.43;2.73;;;15.20;99.90;;;;;;5035046;28;20204;-76
2023/08/03 03:44:15;;;;;;;10.50;2.70;;;15.20;99.90;;;;;;5035485;28;20213;-74
2023/08/03 03:46:43;;;;;;;8.27;2.77;;;15.10;99.90;;;;;;5034905;28;20235;-75
2023/08/03 03:49:11;;;;;;;10.50;3.10;;;15.10;99.90;;;;;;5053094;28;20254;-76
2023/08/03 03:51:40;;;;;;;5.97;2.50;;;15.10;99.90;;;;;;5054627;28;20224;-76
2023/08/03 03:54:08;;;;;;;10.53;2.90;;;15.10;99.90;;;;;;5054863;28;20670;-77
2023/08/03 03:56:37;;;;;;;9.27;2.73;;;15.10;99.90;;;;;;5044415;28;20205;-77
2023/08/03 03:59:05;;;;;;;8.27;2.77;;;15.20;99.90;;;;;;5033844;28;20703;-77
2023/08/03 04:01:33;;;;;;;11.63;2.83;;;15.20;99.90;;;;;;5040949;28;20200;-78
2023/08/03 04:04:01;;;;;;;10.97;2.87;;;15.20;99.90;;;;;;5054408;28;20208;-79
2023/08/03 04:06:29;;;;;;;10.07;2.73;;;15.20;99.90;;;;;;5039103;28;20209;-79
2023/08/03 04:08:58;;;;;;;8.63;2.57;;;15.30;99.90;;;;;;5034414;28;20248;-77
2023/08/03 04:11:26;;;;;;;7.80;2.40;;;15.30;99.90;;;;;;5034221;28;20229;-76
2023/08/03 04:13:55;;;;;;;13.00;3.00;;;15.40;99.90;;;;;;5034234;28;20267;-75
2023/08/03 04:16:24;;;;;;;7.63;2.50;;;15.30;99.90;;;;;;5034316;28;20209;-74
2023/08/03 04:18:52;;;;;;;5.83;2.40;;;15.40;99.90;;;;;;5033848;28;20266;-74
2023/08/03 04:21:20;;;;;;;10.87;2.63;;;15.30;99.90;;;;;;5033983;28;20216;-74
2023/08/03 04:23:48;;;;;;;8.97;2.37;;;15.30;99.90;;;;;;5039117;28;20233;-75
2023/08/03 04:26:16;;;;;;;10.00;2.80;;;15.30;99.90;;;;;;5034006;28;20208;-76
2023/08/03 04:28:44;;;;;;;9.03;2.57;;;15.20;99.90;;;;;;5033927;28;20271;-75
2023/08/03 04:31:14;;;;;;;8.53;2.50;;;15.20;99.90;;;;;;5033906;28;20290;-75
2023/08/03 04:33:42;;;;;;;11.30;2.90;;;15.10;99.90;;;;;;5033546;28;20221;-75
2023/08/03 04:36:10;;;;;;;14.23;2.90;;;15.10;99.90;;;;;;5033861;28;20209;-74
2023/08/03 04:38:38;;;;;;;11.80;2.83;;;15.20;99.90;;;;;;5033821;28;20538;-75
2023/08/03 04:41:06;;;;;;;10.67;3.00;;;15.20;99.90;;;;;;5033078;28;20745;-76
2023/08/03 04:43:34;;;;;;;9.13;2.40;;;15.10;99.90;;;;;;5033793;28;20613;-76
2023/08/03 04:46:03;;;;;;;9.63;2.60;;;15.10;99.90;;;;;;5033085;28;20679;-76
2023/08/03 04:48:32;;;;;;;7.57;2.63;;;15.20;99.90;;;;;;5033430;28;20259;-78
2023/08/03 04:51:00;;;;;;;8.10;2.40;;;15.20;99.90;;;;;;5032981;28;20228;-75
2023/08/03 04:53:29;;;;;;;7.80;2.60;;;15.30;99.90;;;;;;5032936;28;20217;-75
2023/08/03 04:55:57;;;;;;;7.80;2.57;;;15.30;99.90;;;;;;5037328;28;20208;-75
2023/08/03 04:58:25;;;;;;;7.80;2.53;;;15.30;99.90;;;;;;5053212;28;20215;-76
2023/08/03 05:00:53;;;;;;;6.43;2.10;;;15.40;99.90;;;;;;5053336;28;20212;-75
2023/08/03 05:03:22;;;;;;;6.60;2.33;;;15.40;99.90;;;;;;5051986;28;20218;-74
2023/08/03 05:05:51;;;;;;;7.97;2.60;;;15.40;99.90;;;;;;5034770;28;20262;-77
2023/08/03 05:08:22;;;;;;;8.87;2.80;;;15.40;99.90;;;;;;5032961;28;20217;-77
2023/08/03 05:10:51;;;;;;;10.30;2.70;;;15.50;99.90;;;;;;5032571;28;20298;-76
2023/08/03 05:13:21;;;;;;;9.73;2.30;;;15.50;99.90;;;;;;5034329;28;20263;-75
2023/08/03 05:15:49;;;;;;;10.23;2.60;;;15.70;99.90;;;;;;5048996;28;20212;-76
2023/08/03 05:18:17;;;;;;;7.63;2.43;;;15.70;99.90;;;;;;5033348;28;20204;-79
2023/08/03 05:20:45;;;;;;;8.83;2.40;;;15.80;99.90;;;;;;5033222;28;20216;-78
2023/08/03 05:23:14;;;;;;;8.60;2.73;;;15.90;99.90;;;;;;5032942;28;20213;-79
2023/08/03 05:25:42;;;;;;;8.17;2.40;;;15.90;99.90;;;;;;5045486;28;20269;-78
2023/08/03 05:28:11;;;;;;;8.80;2.30;;;16.00;99.90;;;;;;5052768;28;20212;-78
2023/08/03 05:30:39;;;;;;;8.40;2.40;;;16.00;99.90;;;;;;5052642;28;20212;-77
2023/08/03 05:33:07;;;;;;;6.33;2.07;;;16.10;99.90;;;;;;5044478;28;20208;-76
2023/08/03 05:35:35;;;;;;;7.17;2.37;;;16.10;99.90;;;;;;5032520;28;20244;-78
2023/08/03 05:38:03;;;;;;;7.90;2.17;;;16.20;99.90;;;;;;5032644;28;20263;-77
2023/08/03 05:40:33;;;;;;;10.70;2.70;;;16.20;99.90;;;;;;5033295;28;20213;-78
2023/08/03 05:43:01;;;;;;;5.43;2.03;;;16.30;99.90;;;;;;5032500;28;20209;-79
2023/08/03 05:45:38;;;;;;;9.90;2.73;;;16.30;99.90;;;;;;5032660;28;20251;-78
2023/08/03 05:48:13;;;;;;;8.93;2.67;;;16.40;99.90;;;;;;5032880;28;20223;-77
2023/08/03 05:50:43;;;;;;;7.10;2.23;;;16.50;99.90;;;;;;5032414;28;20197;-78
2023/08/03 05:53:12;;;;;;;8.87;2.47;;;16.50;99.90;;;;;;5049566;28;20236;-78
2023/08/03 05:55:42;;;;;;;7.47;2.33;;;16.60;99.90;;;;;;5052450;28;20258;-75
2023/08/03 05:58:14;;;;;;;5.20;2.03;;;16.80;99.90;;;;;;5052451;28;20188;-77
2023/08/03 06:00:43;;;;;;;7.70;1.97;;;16.90;99.90;;;;;;5052593;28;20567;-75
2023/08/03 06:03:13;;;;;;;8.00;2.67;;;17.00;99.90;;;;;;5032401;28;20221;-80
2023/08/03 06:05:43;;;;;;;7.30;2.00;;;17.30;99.90;;;;;;5032320;28;20209;-77
2023/08/03 06:08:15;;;;;;;8.70;2.13;;;17.70;99.90;;;;;;5031878;28;20212;-77
2023/08/03 06:10:45;;;;;;;9.93;2.27;;;18.20;99.90;;;;;;5031893;28;20224;-79
2023/08/03 06:13:15;;;;;;;5.80;2.30;;;18.50;99.90;;;;;;5031802;28;20236;-80
2023/08/03 06:15:45;;;;;;;6.57;2.30;;;19.00;99.90;;;;;;5031872;28;20213;-78
2023/08/03 06:18:15;;;;;;;6.80;1.80;;;19.50;99.90;;;;;;5031933;28;20266;-76
2023/08/03 06:20:45;;;;;;;7.47;1.93;;;19.60;99.90;;;;;;5031653;28;20209;-75
2023/08/03 06:23:17;;;;;;;5.50;2.07;;;20.00;99.90;;;;;;5031884;28;20295;-76
2023/08/03 06:25:48;;;;;;;5.90;1.73;;;19.90;99.90;;;;;;5031770;28;20209;-78
2023/08/03 06:28:18;;;;;;;6.00;2.00;;;19.70;99.90;;;;;;5032360;28;20611;-75
2023/08/03 06:30:48;;;;;;;4.80;1.50;;;19.90;99.90;;;;;;5032170;28;20216;-76
2023/08/03 06:33:18;;;;;;;6.90;1.87;;;20.00;99.90;;;;;;5031652;28;20232;-76
2023/08/03 06:35:47;;;;;;;5.13;1.60;;;20.00;99.90;;;;;;5030321;28;20209;-76
2023/08/03 06:38:17;;;;;;;6.83;1.73;;;19.90;99.90;;;;;;5030014;28;20213;-76
2023/08/03 06:40:48;;;;;;;4.37;1.47;;;19.80;99.90;;;;;;5030243;28;20579;-76
2023/08/03 06:43:17;;;;;;;5.50;1.40;;;19.70;99.90;;;;;;5029623;28;20545;-76
2023/08/03 06:45:45;;;;;;;4.57;1.40;;;20.00;99.90;;;;;;5030300;28;20248;-78
2023/08/03 06:48:14;;;;;;;6.53;1.73;;;20.00;99.90;;;;;;5030942;28;20557;-76
2023/08/03 06:50:44;;;;;;;5.87;1.53;;;20.30;99.90;;;;;;5030832;28;20395;-75
2023/08/03 06:53:13;;;;;;;4.10;1.63;;;20.40;99.90;;;;;;5030401;28;20231;-78
2023/08/03 06:55:44;;;;;;;3.23;1.47;;;20.80;99.90;;;;;;5031116;28;20278;-77
2023/08/03 06:58:13;;;;;;;2.93;1.10;;;22.00;99.90;;;;;;5045077;28;20207;-79
2023/08/03 07:00:42;;;;;;;3.77;1.30;;;22.90;95.70;;;;;;5051785;28;20204;-77
2023/08/03 07:03:11;;;;;;;5.07;1.30;;;23.50;93.10;;;;;;5037638;28;20243;-78
2023/08/03 07:05:40;;;;;;;3.60;1.57;;;23.80;92.60;;;;;;5032389;28;20616;-78
2023/08/03 07:08:09;;;;;;;4.93;1.50;;;24.30;91.40;;;;;;5032216;28;20217;-78
2023/08/03 07:10:38;;;;;;;5.35;1.40;;;25.00;83.50;;;;;;5038189;28;20232;-77
2023/08/03 07:13:06;;;;;;;7.03;1.30;;;25.20;81.10;;;;;;5051992;28;20227;-79
2023/08/03 07:15:36;;;;;;;3.83;1.13;;;25.80;80.20;;;;;;5052240;28;20212;-78
2023/08/03 07:18:05;;;;;;;2.47;1.13;;;26.10;70.80;;;;;;5048024;28;20232;-76
2023/08/03 07:20:35;;;;;;;3.60;1.35;;;25.90;73.40;;;;;;5031790;28;20213;-79
2023/08/03 07:23:05;;;;;;;3.30;1.42;;;26.10;73.40;;;;;;5031442;28;20205;-76
2023/08/03 07:25:34;;;;;;;3.72;1.13;;;26.70;68.70;;;;;;5031584;28;20660;-75
2023/08/03 07:28:03;;;;;;;3.85;1.35;;;27.20;66.50;;;;;;5032037;28;20289;-78
2023/08/03 07:30:35;;;;;;;4.55;1.30;;;27.10;61.80;;;;;;5032459;28;20220;-80
2023/08/03 07:33:04;;;;;;;4.35;1.38;;;26.70;61.00;;;;;;5032835;28;20224;-79
2023/08/03 07:35:33;;;;;;;4.43;1.30;;;26.70;62.60;;;;;;5035424;28;20643;-79
2023/08/03 07:38:01;;;;;;;3.15;1.27;;;27.20;59.90;;;;;;5046245;28;20266;-77
2023/08/03 07:40:29;;;;;;;3.88;1.40;;;27.30;59.10;;;;;;5055091;28;20250;-80
2023/08/03 07:42:58;;;;;;;7.10;1.48;;;26.90;57.30;;;;;;5054721;28;20552;-78
2023/08/03 07:45:27;;;;;;;2.60;1.33;;;28.00;58.50;;;;;;5044707;28;20212;-77
2023/08/03 07:47:58;;;;;;;4.05;1.50;;;28.60;54.10;;;;;;5035078;28;20220;-79
2023/08/03 07:50:28;;;;;;;4.05;1.40;;;28.50;54.90;;;;;;5035596;28;20299;-81
2023/08/03 07:52:56;;;;;;;1.52;1.00;;;28.90;52.70;;;;;;5034366;28;20640;-79
2023/08/03 07:55:24;;;;;;;2.35;1.10;;;29.60;51.20;;;;;;5037080;28;20264;-80
2023/08/03 07:57:52;;;;;;;2.67;1.30;;;28.60;48.10;;;;;;5054860;28;20307;-79
2023/08/03 08:00:22;;;;;;;3.35;1.30;;;28.40;49.20;;;;;;5054702;28;20627;-78
2023/08/03 08:02:50;;;;;;;2.28;1.20;;;28.60;49.50;;;;;;5039784;28;20212;-80
2023/08/03 08:05:18;;;;;;;2.22;1.30;;;28.10;50.70;;;;;;5034950;28;20205;-79
2023/08/03 08:07:48;;;;;;;4.03;1.05;;;28.30;51.60;;;;;;5034600;28;20637;-80
2023/08/03 08:10:16;;;;;;;3.58;1.20;;;28.30;50.80;;;;;;5034134;28;20282;-83
2023/08/03 08:12:45;;;;;;;5.25;1.58;;;28.10;49.00;;;;;;5034149;28;20221;-77
2023/08/03 08:15:16;;;;;;;4.93;1.20;;;27.50;50.90;;;;;;5034507;28;20559;-77
2023/08/03 08:17:44;;;;;;;2.28;1.13;;;28.00;51.30;;;;;;5034486;28;20208;-80
2023/08/03 08:20:13;;;;;;;4.47;1.20;;;28.50;51.00;;;;;;5034418;28;20212;-79
2023/08/03 08:22:41;;;;;;;2.55;1.00;;;28.40;49.50;;;;;;5033821;28;20655;-77
2023/08/03 08:25:11;;;;;;;5.53;1.15;;;28.50;50.00;;;;;;5034364;28;20243;-78
2023/08/03 08:27:39;;;;;;;3.35;1.27;;;28.50;48.10;;;;;;5034082;28;20216;-77
2023/08/03 08:30:09;;;;;;;2.67;1.13;;;27.50;49.00;;;;;;5053550;28;20208;-79
2023/08/03 08:32:38;;;;;;;2.83;1.25;;;28.80;49.00;;;;;;5053792;28;20402;-77
2023/08/03 08:35:07;;;;;;;2.90;1.05;;;29.20;48.60;;;;;;5054050;28;20209;-76
2023/08/03 08:37:35;;;;;;;3.00;1.30;;;29.10;48.60;;;;;;5049089;28;20287;-77
2023/08/03 08:40:04;;;;;;;5.95;1.23;;;29.40;47.80;;;;;;5033959;28;20216;-81
2023/08/03 08:42:35;;;;;;;3.88;1.40;;;29.30;46.30;;;;;;5034031;28;20209;-79
2023/08/03 08:45:05;;;;;;;4.55;1.20;;;29.30;46.50;;;;;;5034032;28;20537;-79
2023/08/03 08:47:33;;;;;;;5.00;1.38;;;29.70;44.90;;;;;;5033444;28;20216;-81
2023/08/03 08:50:01;;;;;;;3.45;1.23;;;29.70;44.60;;;;;;5034210;28;20219;-81
2023/08/03 08:52:33;;;;;;;2.53;1.25;;;30.10;45.70;;;;;;5033294;28;20263;-80
2023/08/03 08:55:23;;;;;;;2.88;1.45;;;30.20;45.90;;;;;;5046848;28;20316;-78
2023/08/03 08:57:57;;;;;;;4.97;1.33;;;30.40;44.00;;;;;;5052875;28;20262;-80
2023/08/03 09:00:28;;;;;;;3.40;1.10;;;30.20;43.70;;;;;;5053746;28;20620;-81
2023/08/03 09:02:57;;;;;;;3.80;1.33;;;29.80;43.80;;;;;;5054445;28;20200;-79
2023/08/03 09:05:26;;;;;;;2.38;1.30;;;30.00;43.40;;;;;;5045092;28;20603;-79
2023/08/03 09:08:01;;;;;;;2.92;1.33;;;30.40;43.60;;;;;;5034866;28;20312;-80
2023/08/03 09:10:29;;;;;;;3.22;1.10;;;29.90;43.10;;;;;;5033776;28;20252;-81
2023/08/03 09:13:00;;;;;;;4.75;1.50;;;29.20;43.30;;;;;;5033192;28;20228;-81
2023/08/03 09:15:39;;;;;;;5.13;1.50;;;29.20;44.20;;;;;;5033318;28;20271;-79
2023/08/03 09:18:08;;;;;;;3.88;1.38;;;30.10;45.50;;;;;;5034233;28;20220;-77
2023/08/03 09:20:36;;;;;;;3.40;1.27;;;30.40;44.40;;;;;;5033645;28;20231;-80
2023/08/03 09:23:07;;;;;;;4.72;1.50;;;30.80;41.90;;;;;;5032678;28;20312;-82
2023/08/03 09:25:51;;;;;;;4.50;1.23;;;30.60;42.20;;;;;;5033465;28;20223;-80
2023/08/03 09:28:20;;;;;;;4.22;1.42;;;30.20;42.20;;;;;;5033329;28;20212;-82
2023/08/03 09:30:52;;;;;;;4.32;1.50;;;29.50;43.50;;;;;;5033755;28;20194;-77
2023/08/03 09:33:23;;;;;;;3.15;1.30;;;29.50;41.60;;;;;;5033039;28;20596;-78
2023/08/03 09:36:05;;;;;;;3.45;1.10;;;29.70;43.20;;;;;;5032753;28;20239;-78
2023/08/03 09:38:33;;;;;;;4.35;1.30;;;30.10;41.70;;;;;;5032346;28;20296;-78
2023/08/03 09:41:01;;;;;;;2.05;1.10;;;30.20;43.20;;;;;;5032542;28;20212;-79
2023/08/03 09:43:32;;;;;;;4.00;1.50;;;31.30;40.50;;;;;;5032359;28;20275;-77
2023/08/03 09:46:03;;;;;;;4.60;1.52;;;31.40;41.40;;;;;;5032829;28;20207;-78
2023/08/03 09:48:31;;;;;;;1.58;1.08;;;30.70;41.30;;;;;;5034011;28;20687;-81
2023/08/03 09:51:02;;;;;;;4.53;1.67;;;30.70;39.80;;;;;;5033279;28;20213;-77
2023/08/03 09:53:31;;;;;;;6.60;1.98;;;30.50;41.10;;;;;;5043292;28;20213;-77
2023/08/03 09:56:01;;;;;;;4.30;1.40;;;30.40;41.00;;;;;;5053179;28;20208;-80
2023/08/03 09:58:52;;;;;;;2.40;1.30;;;30.60;40.60;;;;;;5049516;28;20205;-80
2023/08/03 10:01:28;;;;;;;3.20;1.20;;;30.80;37.80;;;;;;5018722;28;20232;-81
2023/08/03 10:04:00;;;;;;;4.13;1.50;;;30.70;38.60;;;;;;5033960;28;20204;-80
2023/08/03 10:06:33;;;;;;;6.07;1.50;;;30.60;40.10;;;;;;5032451;28;20228;-80
2023/08/03 10:09:05;;;;;;;3.33;1.20;;;31.00;39.40;;;;;;5033069;28;20235;-80
2023/08/03 10:11:38;;;;;;;3.53;1.40;;;30.80;38.20;;;;;;5032494;28;20229;-80
2023/08/03 10:14:10;;;;;;;3.47;1.30;;;31.50;37.50;;;;;;5032211;28;20217;-81
2023/08/03 10:16:40;;;;;;;3.88;1.20;;;30.70;35.20;;;;;;5032909;28;20309;-82
2023/08/03 10:19:09;;;;;;;2.63;1.20;;;29.90;36.70;;;;;;5033018;28;20197;-77
2023/08/03 10:21:37;;;;;;;3.78;1.10;;;30.10;37.10;;;;;;5032162;28;20213;-79
2023/08/03 10:24:10;;;;;;;4.25;1.40;;;30.80;39.20;;;;;;5032370;28;20208;-77
2023/08/03 10:26:40;;;;;;;3.45;1.33;;;30.90;37.70;;;;;;5031795;28;20658;-79
2023/08/03 10:29:10;;;;;;;3.75;1.30;;;30.70;37.40;;;;;;5032371;28;20262;-78
2023/08/03 10:31:55;;;;;;;3.88;1.20;;;30.60;38.60;;;;;;5032496;28;20213;-80
2023/08/03 10:34:27;;;;;;;1.63;1.00;;;30.70;36.00;;;;;;5031864;28;20231;-76
2023/08/03 10:36:57;;;;;;;3.60;1.00;;;30.10;37.70;;;;;;5033310;28;20213;-78
2023/08/03 10:39:53;;;;;;;2.63;1.10;;;29.80;38.00;;;;;;5032651;28;20198;-78
2023/08/03 10:42:27;;;;;;;2.95;1.20;;;29.90;39.60;;;;;;5043907;28;20641;-80
2023/08/03 10:45:28;;;;;;;2.45;1.55;;;30.20;38.90;;;;;;5052913;28;20254;-78
2023/08/03 10:48:26;;;;;;;2.88;1.15;;;30.80;39.40;;;;;;5033953;28;20651;-81
2023/08/03 10:50:59;;;;;;;2.67;1.10;;;31.30;37.80;;;;;;5032987;28;20240;-81
2023/08/03 10:53:27;;;;;;;3.95;1.10;;;30.90;37.60;;;;;;5032144;28;20219;-76
2023/08/03 10:56:07;;;;;;;3.78;1.10;;;29.70;38.10;;;;;;5032140;28;20300;-79
2023/08/03 10:58:48;;;;;;;2.00;1.05;;;28.90;40.20;;;;;;5032533;28;20216;-76
2023/08/03 11:01:22;;;;;;;2.90;1.05;;;28.30;43.10;;;;;;5032264;28;20208;-77
2023/08/03 11:03:51;;;;;;;4.88;1.20;;;28.00;44.80;;;;;;5031605;28;20208;-77
2023/08/03 11:06:19;;;;;;;3.05;1.10;;;27.70;41.90;;;;;;5032065;28;20212;-76
2023/08/03 11:08:50;;;;;;;1.85;1.00;;;27.60;42.90;;;;;;5034467;28;20219;-76
2023/08/03 11:11:22;;;;;;;2.85;0.98;;;27.20;43.00;;;;;;5035764;28;20578;-76
2023/08/03 11:13:50;;;;;;;2.42;0.80;;;27.10;44.90;;;;;;5035419;28;20245;-76
2023/08/03 11:16:23;;;;;;;3.63;1.25;;;26.90;45.90;;;;;;5035824;28;20310;-75
2023/08/03 11:18:51;;;;;;;4.63;1.63;;;27.20;46.70;;;;;;5036287;28;20201;-76
2023/08/03 11:21:19;;;;;;;4.97;1.30;;;27.00;45.10;;;;;;5036591;28;20274;-79
2023/08/03 11:23:47;;;;;;;2.63;1.00;;;26.60;42.90;;;;;;5035647;28;20632;-76
2023/08/03 11:26:17;;;;;;;2.07;0.80;;;26.70;45.30;;;;;;5036248;28;20365;-78
2023/08/03 11:28:45;;;;;;;4.37;1.20;;;27.20;44.30;;;;;;5035959;28;20628;-77
2023/08/03 11:31:17;;;;;;;1.90;0.80;;;27.40;44.10;;;;;;5048226;28;20227;-78
2023/08/03 11:33:50;;;;;;;2.17;0.90;;;27.60;42.90;;;;;;5056489;28;20292;-76
2023/08/03 11:36:19;;;;;;;6.00;1.20;;;27.50;41.80;;;;;;5056079;28;20220;-78
2023/08/03 11:38:47;;;;;;;1.83;0.90;;;27.00;44.30;;;;;;5050139;28;20609;-76
2023/08/03 11:41:17;;;;;;;2.03;0.90;;;26.80;43.60;;;;;;5035529;28;20217;-75
2023/08/03 11:43:59;;;;;;;2.60;1.10;;;25.80;45.30;;;;;;5036289;28;20220;-77
2023/08/03 11:46:28;;;;;;;4.53;0.93;;;25.50;47.60;;;;;;5035591;28;20221;-80
2023/08/03 11:48:59;;;;;;;2.43;0.80;;;26.00;48.90;;;;;;5036618;28;20596;-78
2023/08/03 11:51:35;;;;;;;2.07;0.80;;;26.40;47.40;;;;;;5050764;28;20243;-77
2023/08/03 11:54:04;;;;;;;5.23;0.90;;;26.40;47.30;;;;;;5055161;28;20270;-78
2023/08/03 11:56:33;;;;;;;3.37;0.80;;;26.90;48.60;;;;;;5054443;28;20208;-79
2023/08/03 11:59:10;;;;;;;4.00;1.00;;;26.50;44.90;;;;;;5055399;28;20192;-76
2023/08/03 12:01:46;;;;;;;3.33;1.03;;;26.30;48.10;;;;;;5055189;28;20212;-78
2023/08/03 12:04:17;;;;;;;3.07;1.00;;;26.10;47.80;;;;;;5050682;28;20217;-79
2023/08/03 12:06:47;;;;;;;1.73;0.70;;;25.90;48.00;;;;;;5034566;28;20225;-79
2023/08/03 12:09:20;;;;;;;2.43;0.70;;;26.00;50.20;;;;;;5035559;28;20682;-78
2023/08/03 12:11:49;;;;;;;2.83;0.90;;;26.00;47.60;;;;;;5036877;28;20292;-78
2023/08/03 12:14:18;;;;;;;2.40;0.70;;;25.80;47.50;;;;;;5036306;28;20213;-80
2023/08/03 12:16:47;;;;;;;1.70;0.77;;;25.80;49.90;;;;;;5035578;28;20205;-75
2023/08/03 12:19:18;;;;;;;3.63;0.83;;;25.70;49.10;;;;;;5034909;28;20215;-79
2023/08/03 12:21:47;;;;;;;1.33;0.63;;;25.30;48.80;;;;;;5035690;28;20259;-78
2023/08/03 12:24:15;;;;;;;2.30;0.60;;;25.00;50.10;;;;;;5035775;28;20303;-78
2023/08/03 12:26:43;;;;;;;3.10;0.80;;;24.70;49.60;;;;;;5035484;28;20205;-79
2023/08/03 12:29:13;;;;;;;3.43;0.90;;;24.60;50.00;;;;;;5036321;28;20209;-78
2023/08/03 12:31:41;;;;;;;3.30;1.00;;;24.60;51.80;;;;;;5035069;28;20220;-77
2023/08/03 12:34:09;;;;;;;1.90;0.70;;;25.00;52.10;;;;;;5034791;28;20295;-78
2023/08/03 12:36:39;;;;;;;2.13;0.80;;;25.20;49.50;;;;;;5034584;28;20232;-74
2023/08/03 12:39:07;;;;;;;3.87;0.97;;;25.60;50.00;;;;;;5036416;28;20510;-79
2023/08/03 12:41:37;;;;;;;3.07;1.00;;;25.90;47.90;;;;;;5048477;28;20543;-77
2023/08/03 12:44:06;;;;;;;3.10;0.90;;;26.40;49.60;;;;;;5054463;28;20219;-77
2023/08/03 12:46:34;;;;;;;1.60;0.90;;;26.50;47.80;;;;;;5055012;28;20212;-79
2023/08/03 12:49:03;;;;;;;3.50;0.90;;;26.70;47.40;;;;;;5052869;28;20269;-79
2023/08/03 12:51:31;;;;;;;3.93;0.90;;;26.90;47.50;;;;;;5054221;28;20220;-78
2023/08/03 12:54:01;;;;;;;2.53;1.07;;;26.90;48.10;;;;;;5055302;28;20624;-76
2023/08/03 12:56:29;;;;;;;3.10;0.90;;;26.20;46.30;;;;;;5054761;28;20224;-76
2023/08/03 12:58:57;;;;;;;4.47;1.00;;;25.90;47.80;;;;;;5054121;28;20288;-75